createdAt,value
2019-02-26T00:01:02.926Z,7.60
2019-02-26T00:03:35.430Z,8.30
2019-02-26T00:06:07.543Z,7.80
2019-02-26T00:08:39.508Z,9.20
2019-02-26T00:11:11.510Z,8.20
2019-02-26T00:13:43.495Z,8.10
2019-02-26T00:16:17.703Z,8.63
2019-02-26T00:18:49.346Z,7.57
2019-02-26T00:21:22.702Z,8.27
2019-02-26T00:23:55.202Z,8.00
2019-02-26T00:26:27.193Z,7.77
2019-02-26T00:28:59.794Z,8.13
2019-02-26T00:31:33.084Z,7.73
2019-02-26T00:34:06.014Z,7.67
2019-02-26T00:36:38.961Z,9.30
2019-02-26T00:39:10.938Z,8.27
2019-02-26T00:41:42.900Z,7.70
2019-02-26T00:44:14.902Z,8.33
2019-02-26T00:46:46.850Z,8.67
2019-02-26T00:49:21.031Z,8.93
2019-02-26T00:51:52.873Z,8.47
2019-02-26T00:54:26.666Z,8.63
2019-02-26T00:57:01.067Z,9.80
2019-02-26T00:59:32.656Z,10.00
2019-02-26T01:02:04.627Z,9.23
2019-02-26T01:04:36.591Z,9.03
2019-02-26T01:07:08.580Z,8.90
2019-02-26T01:09:40.563Z,8.90
2019-02-26T01:12:13.801Z,9.13
2019-02-26T01:14:48.079Z,8.37
2019-02-26T01:17:20.263Z,8.67
2019-02-26T01:19:52.258Z,7.90
2019-02-26T01:22:24.193Z,8.57
2019-02-26T01:24:56.747Z,8.93
2019-02-26T01:27:30.083Z,9.43
2019-02-26T01:30:03.468Z,8.93
2019-02-26T01:32:35.553Z,8.70
2019-02-26T01:35:08.885Z,8.97
2019-02-26T01:37:41.394Z,8.80
2019-02-26T01:40:15.854Z,8.43
2019-02-26T01:42:51.933Z,9.60
2019-02-26T01:45:22.366Z,8.90
2019-02-26T01:47:54.999Z,9.20
2019-02-26T01:50:28.390Z,8.90
2019-02-26T01:53:01.152Z,8.73
2019-02-26T01:55:33.249Z,8.60
2019-02-26T01:58:05.205Z,8.57
2019-02-26T02:00:38.652Z,9.37
2019-02-26T02:03:11.062Z,9.90
2019-02-26T02:05:43.944Z,10.33
2019-02-26T02:08:17.905Z,10.67
2019-02-26T02:10:53.598Z,9.17
2019-02-26T02:13:28.332Z,9.40
2019-02-26T02:15:59.731Z,9.83
2019-02-26T02:18:32.402Z,10.47
2019-02-26T02:21:04.386Z,10.60
2019-02-26T02:23:36.351Z,11.57
2019-02-26T02:26:09.394Z,9.80
2019-02-26T02:28:42.253Z,10.60
2019-02-26T02:31:14.221Z,10.97
2019-02-26T02:33:46.214Z,10.20
2019-02-26T02:36:20.523Z,10.80
2019-02-26T02:38:52.057Z,11.80
2019-02-26T02:41:24.004Z,11.00
2019-02-26T02:43:56.000Z,11.77
2019-02-26T02:46:27.972Z,12.87
2019-02-26T02:48:59.940Z,12.43
2019-02-26T02:51:34.615Z,12.60
2019-02-26T02:54:05.780Z,12.77
2019-02-26T02:56:39.867Z,12.07
2019-02-26T02:59:14.004Z,12.17
2019-02-26T03:01:48.837Z,11.50
2019-02-26T03:04:20.235Z,12.33
2019-02-26T03:06:55.482Z,12.33
2019-02-26T03:09:27.270Z,11.07
2019-02-26T03:11:59.230Z,12.07
2019-02-26T03:14:33.839Z,10.77
2019-02-26T03:17:06.390Z,12.20
2019-02-26T03:19:41.618Z,11.27
2019-02-26T03:22:15.249Z,11.87
2019-02-26T03:24:48.340Z,11.27
2019-02-26T03:27:20.666Z,10.97
2019-02-26T03:29:55.588Z,12.07
2019-02-26T03:32:26.561Z,11.87
2019-02-26T03:35:02.035Z,12.57
2019-02-26T03:37:34.624Z,10.97
2019-02-26T03:40:08.233Z,11.47
2019-02-26T03:42:43.354Z,12.13
2019-02-26T03:45:15.192Z,11.67
2019-02-26T03:47:47.152Z,12.07
2019-02-26T03:50:19.164Z,12.13
2019-02-26T03:52:51.159Z,11.27
2019-02-26T03:55:23.143Z,12.23
2019-02-26T03:57:57.135Z,10.43
2019-02-26T04:00:31.554Z,11.80
2019-02-26T04:03:03.919Z,11.70
2019-02-26T04:05:38.878Z,11.17
2019-02-26T04:08:10.825Z,11.90
2019-02-26T04:10:42.801Z,11.90
2019-02-26T04:13:14.748Z,11.90
2019-02-26T04:15:46.722Z,12.10
2019-02-26T04:18:18.675Z,12.07
2019-02-26T04:20:50.649Z,11.30
2019-02-26T04:23:22.608Z,10.63
2019-02-26T04:26:51.192Z,12.70
2019-02-26T04:29:57.337Z,11.90
2019-02-26T04:33:24.913Z,10.60
2019-02-26T04:36:20.323Z,10.83
2019-02-26T04:39:34.445Z,12.37
2019-02-26T04:42:37.730Z,11.40
2019-02-26T04:46:13.627Z,11.87
2019-02-26T04:48:45.684Z,11.87
2019-02-26T04:51:17.671Z,11.80
2019-02-26T04:53:51.940Z,11.93
2019-02-26T04:56:24.865Z,11.73
2019-02-26T04:58:56.887Z,11.50
2019-02-26T05:01:28.901Z,11.97
2019-02-26T05:04:00.887Z,11.80
2019-02-26T05:06:32.934Z,12.17
2019-02-26T05:09:05.591Z,11.80
2019-02-26T05:11:40.782Z,12.80
2019-02-26T05:14:15.386Z,11.27
2019-02-26T05:16:46.823Z,12.60
2019-02-26T05:19:21.512Z,12.93
2019-02-26T05:21:53.498Z,12.87
2019-02-26T05:24:26.710Z,11.70
2019-02-26T05:26:58.767Z,12.33
2019-02-26T05:29:30.766Z,11.83
2019-02-26T05:32:04.110Z,10.03
2019-02-26T05:34:39.681Z,12.33
2019-02-26T05:37:13.778Z,12.77
2019-02-26T05:39:46.894Z,12.37
2019-02-26T05:42:19.435Z,11.73
2019-02-26T05:44:53.804Z,12.00
2019-02-26T05:47:26.699Z,11.83
2019-02-26T05:49:59.617Z,11.07
2019-02-26T05:52:33.680Z,13.00
2019-02-26T05:55:06.514Z,10.67
2019-02-26T05:57:38.497Z,11.97
2019-02-26T06:00:13.398Z,11.67
2019-02-26T06:02:47.701Z,11.80
2019-02-26T06:05:22.545Z,11.53
2019-02-26T06:07:54.159Z,11.03
2019-02-26T06:10:27.182Z,11.83
2019-02-26T06:13:02.066Z,11.77
2019-02-26T06:15:34.238Z,11.63
2019-02-26T06:18:07.528Z,11.20
2019-02-26T06:20:39.523Z,11.10
2019-02-26T06:23:11.492Z,12.07
2019-02-26T06:25:43.499Z,11.13
2019-02-26T06:28:17.868Z,12.10
2019-02-26T06:30:50.513Z,11.50
2019-02-26T06:33:23.592Z,11.83
2019-02-26T06:35:57.149Z,11.63
2019-02-26T06:38:32.212Z,13.13
2019-02-26T06:41:03.454Z,12.23
2019-02-26T06:43:37.819Z,12.20
2019-02-26T06:46:11.731Z,12.17
2019-02-26T06:48:43.214Z,11.93
2019-02-26T06:51:15.203Z,12.07
2019-02-26T06:53:49.389Z,12.70
2019-02-26T06:56:21.130Z,12.27
2019-02-26T06:58:53.088Z,12.10
2019-02-26T07:01:25.080Z,13.57
2019-02-26T07:03:57.050Z,13.50
2019-02-26T07:06:30.174Z,13.23
2019-02-26T07:09:03.795Z,12.90
2019-02-26T07:11:37.829Z,13.50
2019-02-26T07:14:10.351Z,14.10
2019-02-26T07:16:42.580Z,13.83
2019-02-26T07:19:16.709Z,13.20
2019-02-26T07:21:51.287Z,14.00
2019-02-26T07:24:24.483Z,13.50
2019-02-26T07:26:56.763Z,12.77
2019-02-26T07:29:30.776Z,13.60
2019-02-26T07:32:02.661Z,12.73
2019-02-26T07:34:34.701Z,12.43
2019-02-26T07:37:09.326Z,12.20
2019-02-26T07:39:42.445Z,12.30
2019-02-26T07:42:16.950Z,12.20
2019-02-26T07:44:49.573Z,12.77
2019-02-26T07:47:22.137Z,11.90
2019-02-26T07:49:56.542Z,13.73
2019-02-26T07:52:28.928Z,13.73
2019-02-26T07:55:03.763Z,13.60
2019-02-26T07:57:35.963Z,12.77
2019-02-26T08:00:10.225Z,12.93
2019-02-26T08:02:42.226Z,13.53
2019-02-26T08:05:16.184Z,14.67
2019-02-26T08:07:49.232Z,13.70
2019-02-26T08:10:22.078Z,13.13
2019-02-26T08:12:56.086Z,13.07
2019-02-26T08:15:30.195Z,13.17
2019-02-26T08:18:03.442Z,13.47
2019-02-26T08:20:37.701Z,13.37
2019-02-26T08:23:10.912Z,13.13
2019-02-26T08:25:42.893Z,12.90
2019-02-26T08:28:15.442Z,12.37
2019-02-26T08:30:49.820Z,12.87
2019-02-26T08:33:22.681Z,12.57
2019-02-26T08:35:56.086Z,12.20
2019-02-26T08:38:30.053Z,12.67
2019-02-26T08:41:02.148Z,13.80
2019-02-26T08:43:34.132Z,13.07
2019-02-26T08:46:07.295Z,13.27
2019-02-26T08:48:41.290Z,12.60
2019-02-26T08:51:16.312Z,12.13
2019-02-26T08:53:49.533Z,12.60
2019-02-26T08:56:23.905Z,12.17
2019-02-26T08:58:55.647Z,12.17
2019-02-26T09:01:27.779Z,12.90
2019-02-26T09:04:00.800Z,13.23
2019-02-26T09:06:32.896Z,12.87
2019-02-26T09:09:06.849Z,12.47
2019-02-26T09:11:38.979Z,13.17
2019-02-26T09:14:12.112Z,12.53
2019-02-26T09:16:47.681Z,11.57
2019-02-26T09:19:18.715Z,11.90
2019-02-26T09:21:52.406Z,12.83
2019-02-26T09:24:24.696Z,12.50
2019-02-26T09:26:57.549Z,11.80
2019-02-26T09:29:31.462Z,12.50
2019-02-26T09:32:06.680Z,12.10
2019-02-26T09:34:39.831Z,11.83
2019-02-26T09:37:13.263Z,12.53
2019-02-26T09:39:45.232Z,11.77
2019-02-26T09:42:17.341Z,12.07
2019-02-26T09:44:50.648Z,12.40
2019-02-26T09:47:32.836Z,11.00
2019-02-26T09:50:44.304Z,10.70
2019-02-26T09:53:16.159Z,10.75
2019-02-26T09:55:48.140Z,10.07
2019-02-26T09:58:21.217Z,10.13
2019-02-26T10:00:54.238Z,9.80
2019-02-26T10:03:27.370Z,9.97
2019-02-26T10:06:00.117Z,9.63
2019-02-26T10:08:32.173Z,9.43
2019-02-26T10:11:04.875Z,9.83
2019-02-26T10:13:39.624Z,8.83
2019-02-26T10:16:11.959Z,9.07
2019-02-26T10:18:45.018Z,8.37
2019-02-26T10:21:20.338Z,8.10
2019-02-26T10:23:53.961Z,7.97
2019-02-26T10:26:26.315Z,7.73
2019-02-26T10:29:04.429Z,7.07
2019-02-26T10:31:33.512Z,6.97
2019-02-26T10:34:07.861Z,5.70
2019-02-26T10:36:43.429Z,5.80
2019-02-26T10:39:15.087Z,5.00
2019-02-26T10:41:47.291Z,4.60
2019-02-26T10:44:19.291Z,5.20
2019-02-26T10:46:52.376Z,5.77
2019-02-26T10:49:24.354Z,6.20
2019-02-26T10:51:57.749Z,6.07
2019-02-26T10:54:32.150Z,4.83
2019-02-26T10:57:07.599Z,5.07
2019-02-26T10:59:38.200Z,5.27
2019-02-26T11:02:10.269Z,4.70
2019-02-26T11:04:43.924Z,4.55
2019-02-26T11:07:16.181Z,4.65
2019-02-26T11:09:52.634Z,4.03
2019-02-26T11:12:27.380Z,3.42
2019-02-26T11:14:58.640Z,4.30
2019-02-26T11:17:31.685Z,4.35
2019-02-26T11:20:05.267Z,4.55
2019-02-26T11:22:41.624Z,4.25
2019-02-26T11:25:16.359Z,4.17
2019-02-26T11:27:49.086Z,3.42
2019-02-26T11:30:23.834Z,4.20
2019-02-26T11:32:59.373Z,3.85
2019-02-26T11:35:30.162Z,4.25
2019-02-26T11:38:02.182Z,3.55
2019-02-26T11:40:34.249Z,4.08
2019-02-26T11:43:11.505Z,4.10
2019-02-26T11:45:44.407Z,4.17
2019-02-26T11:48:17.549Z,4.55
2019-02-26T11:50:49.755Z,4.03
2019-02-26T11:53:21.719Z,4.05
2019-02-26T11:55:54.991Z,4.30
2019-02-26T11:58:27.621Z,3.80
2019-02-26T12:01:01.382Z,4.20
2019-02-26T12:03:36.375Z,3.70
2019-02-26T12:06:07.311Z,4.15
2019-02-26T12:08:40.593Z,3.70
2019-02-26T12:11:17.596Z,3.95
2019-02-26T12:13:47.909Z,3.27
2019-02-26T12:16:22.208Z,3.75
2019-02-26T12:18:54.225Z,3.60
2019-02-26T12:21:28.058Z,3.50
2019-02-26T12:24:03.198Z,3.50
2019-02-26T12:26:35.056Z,3.35
2019-02-26T12:29:07.025Z,3.55
2019-02-26T12:31:39.248Z,3.33
2019-02-26T12:34:12.378Z,3.17
2019-02-26T12:36:48.088Z,3.10
2019-02-26T12:39:21.422Z,2.90
2019-02-26T12:41:53.136Z,3.15
2019-02-26T12:44:25.155Z,3.30
2019-02-26T12:47:00.173Z,3.40
2019-02-26T12:49:35.626Z,3.22
2019-02-26T12:52:06.740Z,3.37
2019-02-26T12:54:42.236Z,3.25
2019-02-26T12:57:18.845Z,3.83
2019-02-26T12:59:49.813Z,4.30
2019-02-26T13:02:25.664Z,3.72
2019-02-26T13:04:55.787Z,4.45
2019-02-26T13:07:27.875Z,3.83
2019-02-26T13:10:03.375Z,3.62
2019-02-26T13:12:33.910Z,4.00
2019-02-26T13:15:09.742Z,3.92
2019-02-26T13:17:44.319Z,3.22
2019-02-26T13:20:19.134Z,4.20
2019-02-26T13:22:56.185Z,3.67
2019-02-26T13:25:26.752Z,4.10
2019-02-26T13:27:59.202Z,3.98
2019-02-26T13:30:32.913Z,4.87
2019-02-26T13:35:41.886Z,4.70
2019-02-26T13:38:13.042Z,4.90
2019-02-26T13:40:45.225Z,4.15
2019-02-26T13:43:17.267Z,3.67
2019-02-26T13:45:49.254Z,3.00
2019-02-26T13:48:21.282Z,2.87
2019-02-26T13:50:53.467Z,2.98
2019-02-26T13:53:25.959Z,2.90
2019-02-26T13:55:58.006Z,2.40
2019-02-26T13:58:31.115Z,2.08
2019-02-26T14:01:04.841Z,2.00
2019-02-26T14:03:37.070Z,1.50
2019-02-26T14:06:09.072Z,1.70
2019-02-26T14:08:41.104Z,1.50
2019-02-26T14:11:13.284Z,1.80
2019-02-26T14:13:46.451Z,1.77
2019-02-26T14:16:18.439Z,1.50
2019-02-26T14:18:50.458Z,1.50
2019-02-26T14:21:22.469Z,1.42
2019-02-26T14:23:54.524Z,1.50
2019-02-26T14:26:26.625Z,1.75
2019-02-26T14:28:58.725Z,1.80
2019-02-26T14:31:30.691Z,1.60
2019-02-26T14:34:02.740Z,1.70
2019-02-26T14:36:34.740Z,1.50
2019-02-26T14:39:07.271Z,1.42
2019-02-26T14:41:39.388Z,1.47
2019-02-26T14:44:11.413Z,1.72
2019-02-26T14:46:44.548Z,1.35
2019-02-26T14:49:16.563Z,1.70
2019-02-26T14:51:48.779Z,1.57
2019-02-26T14:54:20.819Z,1.50
2019-02-26T14:56:52.975Z,1.70
2019-02-26T14:59:25.000Z,1.42
2019-02-26T15:01:57.001Z,2.45
2019-02-26T15:04:30.322Z,2.60
2019-02-26T15:07:02.332Z,3.52
2019-02-26T15:09:34.739Z,2.92
2019-02-26T15:12:06.748Z,3.08
2019-02-26T15:14:38.834Z,2.95
2019-02-26T15:17:10.854Z,3.00
2019-02-26T15:19:49.676Z,2.37
2019-02-26T15:22:17.076Z,3.05
2019-02-26T15:24:49.156Z,3.17
2019-02-26T15:27:21.178Z,3.00
2019-02-26T15:29:53.394Z,3.60
2019-02-26T15:32:25.530Z,3.35
2019-02-26T15:34:57.572Z,3.35
2019-02-26T15:37:29.611Z,3.30
2019-02-26T15:40:01.815Z,3.37
2019-02-26T15:42:33.845Z,2.70
2019-02-26T15:45:09.248Z,3.30
2019-02-26T15:47:41.221Z,3.35
2019-02-26T15:50:13.168Z,3.25
2019-02-26T15:52:45.222Z,3.08
2019-02-26T15:55:18.219Z,2.72
2019-02-26T15:57:50.257Z,2.92
2019-02-26T16:00:22.893Z,2.40
2019-02-26T16:02:58.994Z,2.62
2019-02-26T16:05:29.115Z,3.10
2019-02-26T16:08:01.173Z,3.10
2019-02-26T16:10:33.583Z,4.03
2019-02-26T16:13:05.643Z,2.85
2019-02-26T16:15:37.644Z,2.70
2019-02-26T16:18:09.668Z,2.37
2019-02-26T16:20:41.663Z,2.80
2019-02-26T16:23:13.715Z,2.98
2019-02-26T16:25:45.730Z,2.67
2019-02-26T16:28:17.742Z,2.85
2019-02-26T16:30:49.832Z,2.90
2019-02-26T16:33:21.910Z,3.12
2019-02-26T16:35:57.434Z,2.50
2019-02-26T16:38:27.978Z,2.60
2019-02-26T16:41:00.027Z,3.15
2019-02-26T16:43:32.025Z,3.35
2019-02-26T16:46:08.375Z,3.43
2019-02-26T16:48:38.406Z,6.08
2019-02-26T16:51:10.624Z,5.80
2019-02-26T16:53:42.676Z,5.00
2019-02-26T16:56:14.928Z,5.37
2019-02-26T16:58:46.976Z,4.80
2019-02-26T17:01:19.710Z,4.70
2019-02-26T17:03:52.965Z,5.33
2019-02-26T17:06:25.008Z,5.60
2019-02-26T17:08:57.039Z,5.10
2019-02-26T17:11:29.089Z,7.23
2019-02-26T17:14:01.079Z,6.80
2019-02-26T17:16:33.236Z,6.20
2019-02-26T17:19:05.222Z,6.07
2019-02-26T17:21:37.358Z,4.77
2019-02-26T17:24:09.378Z,4.63
2019-02-26T17:26:41.394Z,5.30
2019-02-26T17:29:14.870Z,4.93
2019-02-26T17:31:47.565Z,5.10
2019-02-26T17:34:20.340Z,5.10
2019-02-26T17:36:53.622Z,4.93
2019-02-26T17:39:27.871Z,4.30
2019-02-26T17:41:59.565Z,3.40
2019-02-26T17:44:31.611Z,3.40
2019-02-26T17:47:03.702Z,3.17
2019-02-26T17:49:36.315Z,3.70
2019-02-26T17:52:08.975Z,3.23
2019-02-26T17:54:40.962Z,4.20
2019-02-26T17:57:13.018Z,3.90
2019-02-26T17:59:45.037Z,3.97
2019-02-26T18:02:17.066Z,4.27
2019-02-26T18:04:49.089Z,3.67
2019-02-26T18:07:21.136Z,4.40
2019-02-26T18:09:53.208Z,3.73
2019-02-26T18:12:25.239Z,3.80
2019-02-26T18:14:57.291Z,5.13
2019-02-26T18:17:29.287Z,6.40
2019-02-26T18:20:01.419Z,6.13
2019-02-26T18:22:33.435Z,6.03
2019-02-26T18:25:06.080Z,6.27
2019-02-26T18:27:38.144Z,6.53
2019-02-26T18:30:18.151Z,6.53
2019-02-26T18:32:53.182Z,11.00
2019-02-26T18:35:24.374Z,14.63
2019-02-26T18:37:56.399Z,12.73
2019-02-26T18:40:29.053Z,12.73
2019-02-26T18:43:01.233Z,8.30
2019-02-26T18:45:33.327Z,12.63
2019-02-26T18:48:05.354Z,7.97
2019-02-26T18:50:39.092Z,5.33
2019-02-26T18:53:11.760Z,5.03
2019-02-26T18:55:45.336Z,10.13
2019-02-26T18:58:17.330Z,5.90
2019-02-26T19:00:49.395Z,6.40
2019-02-26T19:03:21.479Z,5.70
2019-02-26T19:05:54.661Z,4.23
2019-02-26T19:08:26.919Z,4.80
2019-02-26T19:10:59.035Z,5.03
2019-02-26T19:13:33.263Z,5.87
2019-02-26T19:16:05.053Z,5.33
2019-02-26T19:18:38.498Z,3.87
2019-02-26T19:21:10.659Z,4.40
2019-02-26T19:23:42.657Z,5.27
2019-02-26T19:26:14.734Z,5.73
2019-02-26T19:28:46.874Z,5.77
2019-02-26T19:31:18.973Z,5.87
2019-02-26T19:33:54.467Z,5.63
2019-02-26T19:36:24.992Z,6.40
2019-02-26T19:39:00.713Z,5.50
2019-02-26T19:41:30.975Z,6.17
2019-02-26T19:44:03.049Z,6.13
2019-02-26T19:46:35.111Z,6.73
2019-02-26T19:49:07.150Z,6.60
2019-02-26T19:51:39.266Z,6.50
2019-02-26T19:54:11.288Z,5.53
2019-02-26T19:56:43.401Z,5.30
2019-02-26T19:59:15.451Z,5.87
2019-02-26T20:01:47.527Z,6.40
2019-02-26T20:04:19.582Z,10.13
2019-02-26T20:06:51.670Z,10.50
2019-02-26T20:09:23.712Z,11.83
2019-02-26T20:11:56.208Z,17.70
2019-02-26T20:14:29.026Z,16.37
2019-02-26T20:17:11.594Z,11.40
2019-02-26T20:19:35.048Z,13.43
2019-02-26T20:22:09.832Z,11.60
2019-02-26T20:24:41.875Z,17.50
2019-02-26T20:27:14.002Z,21.57
2019-02-26T20:29:46.048Z,15.63
2019-02-26T20:32:18.212Z,13.10
2019-02-26T20:34:50.351Z,13.77
2019-02-26T20:37:24.422Z,17.40
2019-02-26T20:39:56.488Z,14.17
2019-02-26T20:42:28.918Z,11.17
2019-02-26T20:45:01.579Z,10.83
2019-02-26T20:47:33.635Z,11.03
2019-02-26T20:50:05.801Z,11.40
2019-02-26T20:52:37.865Z,11.47
2019-02-26T20:55:11.593Z,9.70
2019-02-26T20:57:43.632Z,10.90
2019-02-26T21:00:16.683Z,10.10
2019-02-26T21:02:48.729Z,11.57
2019-02-26T21:05:25.043Z,11.17
2019-02-26T21:07:58.822Z,9.03
2019-02-26T21:10:31.123Z,8.47
2019-02-26T21:13:03.151Z,8.47
2019-02-26T21:15:35.213Z,9.13
2019-02-26T21:18:07.223Z,9.33
2019-02-26T21:20:41.142Z,9.87
2019-02-26T21:23:13.422Z,8.77
2019-02-26T21:25:47.464Z,8.97
2019-02-26T21:28:19.402Z,8.00
2019-02-26T21:30:51.490Z,6.60
2019-02-26T21:33:24.693Z,6.60
2019-02-26T21:35:56.804Z,6.50
2019-02-26T21:38:28.800Z,7.20
2019-02-26T21:41:00.969Z,7.13
2019-02-26T21:43:35.491Z,8.40
2019-02-26T21:46:08.864Z,8.67
2019-02-26T21:48:42.064Z,8.43
2019-02-26T21:51:14.166Z,8.43
2019-02-26T21:53:46.678Z,9.13
2019-02-26T21:56:20.135Z,7.13
2019-02-26T21:58:52.183Z,6.53
2019-02-26T22:01:25.777Z,7.40
2019-02-26T22:03:58.600Z,6.63
2019-02-26T22:06:31.423Z,7.50
2019-02-26T22:09:04.684Z,6.97
2019-02-26T22:11:36.688Z,7.20
2019-02-26T22:14:08.700Z,8.03
2019-02-26T22:16:40.752Z,10.03
2019-02-26T22:19:12.764Z,10.50
2019-02-26T22:22:04.287Z,9.80
2019-02-26T22:24:37.807Z,9.60
2019-02-26T22:27:10.235Z,9.73
2019-02-26T22:29:42.238Z,6.97
2019-02-26T22:32:14.303Z,7.50
2019-02-26T22:34:46.303Z,8.20
2019-02-26T22:37:18.349Z,7.73
2019-02-26T22:39:50.377Z,8.00
2019-02-26T22:42:22.412Z,8.97
2019-02-26T22:44:55.244Z,10.17
2019-02-26T22:47:28.338Z,9.93
2019-02-26T22:50:00.373Z,11.10
2019-02-26T22:52:32.380Z,11.40
2019-02-26T22:55:04.835Z,11.90
2019-02-26T22:57:36.889Z,7.83
2019-02-26T23:00:54.334Z,6.77
2019-02-26T23:03:26.492Z,8.93
2019-02-26T23:05:59.060Z,9.37
2019-02-26T23:08:32.414Z,9.57
2019-02-26T23:11:04.509Z,9.27
2019-02-26T23:13:36.605Z,10.77
2019-02-26T23:16:08.646Z,10.40
2019-02-26T23:18:40.843Z,10.73
2019-02-26T23:21:15.734Z,9.60
2019-02-26T23:23:47.734Z,9.60
2019-02-26T23:26:19.699Z,11.67
2019-02-26T23:28:54.432Z,12.80
2019-02-26T23:31:25.826Z,13.47
2019-02-26T23:33:57.817Z,13.30
2019-02-26T23:36:29.813Z,12.30
2019-02-26T23:39:01.855Z,13.13
2019-02-26T23:41:34.023Z,12.03
2019-02-26T23:44:06.052Z,11.90
2019-02-26T23:46:38.140Z,11.67
2019-02-26T23:49:11.778Z,10.87
2019-02-26T23:51:44.000Z,10.13
2019-02-26T23:54:15.981Z,10.47
2019-02-26T23:56:49.854Z,10.53
2019-02-26T23:59:21.885Z,10.70
